Map

Track Data

SID SEASON NUMBER BASIN SUBBASIN NAME ISO_TIME NATURE LAT LON WMO_WIND WMO_PRES WMO_AGENCY TRACK_TYPE DIST2LAND LANDFALL IFLAG USA_AGENCY USA_ATCF_ID USA_LAT USA_LON USA_RECORD USA_STATUS USA_WIND USA_PRES USA_SSHS USA_R34_NE USA_R34_SE USA_R34_SW USA_R34_NW USA_R50_NE USA_R50_SE USA_R50_SW USA_R50_NW USA_R64_NE USA_R64_SE USA_R64_SW USA_R64_NW USA_POCI USA_ROCI USA_RMW USA_EYE TOKYO_LAT TOKYO_LON TOKYO_GRADE TOKYO_WIND TOKYO_PRES TOKYO_R50_DIR TOKYO_R50_LONG TOKYO_R50_SHORT TOKYO_R30_DIR TOKYO_R30_LONG TOKYO_R30_SHORT TOKYO_LAND CMA_LAT CMA_LON CMA_CAT CMA_WIND CMA_PRES HKO_LAT HKO_LON HKO_CAT HKO_WIND HKO_PRES NEWDELHI_LAT NEWDELHI_LON NEWDELHI_GRADE NEWDELHI_WIND NEWDELHI_PRES NEWDELHI_CI NEWDELHI_DP NEWDELHI_POCI REUNION_LAT REUNION_LON REUNION_TYPE REUNION_WIND REUNION_PRES REUNION_TNUM REUNION_CI REUNION_RMW REUNION_R34_NE REUNION_R34_SE REUNION_R34_SW REUNION_R34_NW REUNION_R50_NE REUNION_R50_SE REUNION_R50_SW REUNION_R50_NW REUNION_R64_NE REUNION_R64_SE REUNION_R64_SW REUNION_R64_NW BOM_LAT BOM_LON BOM_TYPE BOM_WIND BOM_PRES BOM_TNUM BOM_CI BOM_RMW BOM_R34_NE BOM_R34_SE BOM_R34_SW BOM_R34_NW BOM_R50_NE BOM_R50_SE BOM_R50_SW BOM_R50_NW BOM_R64_NE BOM_R64_SE BOM_R64_SW BOM_R64_NW BOM_ROCI BOM_POCI BOM_EYE BOM_POS_METHOD BOM_PRES_METHOD NADI_LAT NADI_LON NADI_CAT NADI_WIND NADI_PRES WELLINGTON_LAT WELLINGTON_LON WELLINGTON_WIND WELLINGTON_PRES DS824_LAT DS824_LON DS824_STAGE DS824_WIND DS824_PRES TD9636_LAT TD9636_LON TD9636_STAGE TD9636_WIND TD9636_PRES TD9635_LAT TD9635_LON TD9635_WIND TD9635_PRES TD9635_ROCI NEUMANN_LAT NEUMANN_LON NEUMANN_CLASS NEUMANN_WIND NEUMANN_PRES MLC_LAT MLC_LON MLC_CLASS MLC_WIND MLC_PRES USA_GUST BOM_GUST BOM_GUST_PER REUNION_GUST REUNION_GUST_PER USA_SEAHGT USA_SEARAD_NE USA_SEARAD_SE USA_SEARAD_SW USA_SEARAD_NW STORM_SPEED STORM_DIR
1951330S06074 1952 90 SI MM NOT_NAMED 1951-11-26 06:00:00 TS -6.30000 73.6000 main 1566 1566 O________OO___ jtwc_sh SH021952 -6.30000 73.6000 -1 -6.30000 73.6000 TC 25 -6.30000 73.6000 7 5 270
1951330S06074 1952 90 SI MM NOT_NAMED 1951-11-26 09:00:00 TS -6.29964 73.3491 main 1582 1582 P________PP___ SH021952 -6.29003 73.3400 -1 -6.29003 73.3400 TC 25 -6.31884 73.3672 7 5 268
1951330S06074 1952 90 SI MM NOT_NAMED 1951-11-26 12:00:00 TS -6.31337 73.1125 main 1593 1593 O________OP___ jtwc_sh SH021952 -6.30000 73.1000 -1 -6.30000 73.1000 TC 25 -6.34010 73.1375 7 5 264
1951330S06074 1952 90 SI MM NOT_NAMED 1951-11-26 15:00:00 TS -6.35043 72.8997 main 1614 1614 P________PP___ SH021952 -6.34248 72.8925 -1 -6.34248 72.8925 TC 25 -6.36631 72.9141 7 4 258
1951330S06074 1952 90 SI MM NOT_NAMED 1951-11-26 18:00:00 TS -6.40000 72.7000 main 1625 1625 O________OO___ jtwc_sh SH021952 -6.40000 72.7000 -1 -6.40000 72.7000 TC 25 -6.40000 72.7000 7 4 256
1951330S06074 1952 90 SI MM NOT_NAMED 1951-11-26 21:00:00 TS -6.44758 72.4990 main 1637 1637 P________PP___ SH021952 -6.44999 72.5000 -1 -6.44999 72.5000 TC 25 -6.44276 72.4969 7 4 256
1951330S06074 1952 90 SI MM NOT_NAMED 1951-11-27 00:00:00 TS -6.49748 72.3000 main 1658 1658 O________OP___ jtwc_sh SH021952 -6.50000 72.3000 -1 -6.50000 72.3000 TC 25 -6.49243 72.3000 7 4 256
1951330S06074 1952 90 SI MM NOT_NAMED 1951-11-27 03:00:00 TS -6.54862 72.1010 main 1670 1670 P________PP___ SH021952 -6.54999 72.1000 -1 -6.54999 72.1000 TC 25 -6.54589 72.1031 7 4 256
1951330S06074 1952 90 SI MM NOT_NAMED 1951-11-27 06:00:00 TS -6.60000 71.9000 main 1692 1692 O________OO___ jtwc_sh SH021952 -6.60000 71.9000 -1 -6.60000 71.9000 TC 25 -6.60000 71.9000 7 4 256
1951330S06074 1952 90 SI MM NOT_NAMED 1951-11-27 09:00:00 TS -6.64997 71.7031 main 1704 1704 P________PP___ SH021952 -6.64998 71.7075 -1 -6.64998 71.7075 TC 25 -6.64994 71.6944 7 4 256
1951330S06074 1952 90 SI MM NOT_NAMED 1951-11-27 12:00:00 TS -6.69997 71.4933 main 1726 1726 O________OP___ jtwc_sh SH021952 -6.70000 71.5000 -1 -6.70000 71.5000 TC 25 -6.69991 71.4800 7 5 257
1951330S06074 1952 90 SI MM NOT_NAMED 1951-11-27 15:00:00 TS -6.74997 71.2602 main 1739 1739 P________PP___ SH021952 -6.74999 71.2650 -1 -6.74999 71.2650 TC 25 -6.74993 71.2506 7 5 258
1951330S06074 1952 90 SI MM NOT_NAMED 1951-11-27 18:00:00 TS -6.80000 71.0000 main 1767 1767 O________OO___ jtwc_sh SH021952 -6.80000 71.0000 -1 -6.80000 71.0000 TC 25 -6.80000 71.0000 7 6 259
1951330S06074 1952 90 SI MM NOT_NAMED 1951-11-27 21:00:00 TS -6.85272 70.7095 main 1796 1796 P________PP___ SH021952 -6.85000 70.7075 -1 -6.85000 70.7075 TC 25 -6.85816 70.7135 7 6 260
1951330S06074 1952 90 SI MM NOT_NAMED 1951-11-28 00:00:00 TS -6.90502 70.4025 main 1816 1816 O________OP___ jtwc_sh SH021952 -6.90000 70.4000 -1 -6.90000 70.4000 TC 25 -6.91506 70.4075 7 6 260
1951330S06074 1952 90 SI MM NOT_NAMED 1951-11-28 03:00:00 TS -6.95980 70.0943 main 1845 1845 P________PP___ SH021952 -6.95749 70.0925 -1 -6.95749 70.0925 TC 25 -6.96441 70.0978 7 6 261
1951330S06074 1952 90 SI MM NOT_NAMED 1951-11-28 06:00:00 TS -7.00000 69.8000 main 1866 1866 O________OO___ jtwc_sh SH021952 -7.00000 69.8000 -1 -7.00000 69.8000 TC 25 -7.00000 69.8000 7 6 265
1951330S06074 1952 90 SI MM NOT_NAMED 1951-11-28 09:00:00 TS -7.00704 69.5402 main 1887 1887 P________PP___ SH021952 -7.00747 69.5425 -1 -7.00747 69.5425 TC 25 -7.00617 69.5356 7 5 270
1951330S06074 1952 90 SI MM NOT_NAMED 1951-11-28 12:00:00 TS -6.99997 69.2950 main 1901 1901 O________OP___ jtwc_sh SH021952 -7.00000 69.3000 -1 -7.00000 69.3000 TC 25 -6.99990 69.2849 7 5 272
1951330S06074 1952 90 SI MM NOT_NAMED 1951-11-28 15:00:00 TS -6.99288 69.0473 main 1907 1893 P________PP___ SH021952 -6.99249 69.0500 -1 -6.99249 69.0500 TC 25 -6.99368 69.0418 7 5 270
1951330S06074 1952 90 SI MM NOT_NAMED 1951-11-28 18:00:00 TS -7.00000 68.8000 main 1893 1879 O________OO___ jtwc_sh SH021952 -7.00000 68.8000 -1 -7.00000 68.8000 TC 25 -7.00000 68.8000 7 5 264
1951330S06074 1952 90 SI MM NOT_NAMED 1951-11-28 21:00:00 TS -7.04154 68.5500 main 1879 1850 P________PP___ SH021952 -7.04249 68.5500 -1 -7.04249 68.5500 TC 25 -7.03965 68.5500 7 5 259
1951330S06074 1952 90 SI MM NOT_NAMED 1951-11-29 00:00:00 TS -7.09748 68.3000 main 1850 1828 O________OP___ jtwc_sh SH021952 -7.10000 68.3000 -1 -7.10000 68.3000 TC 25 -7.09245 68.3001 7 5 257
1951330S06074 1952 90 SI MM NOT_NAMED 1951-11-29 03:00:00 TS -7.15466 68.0500 main 1828 1808 P________PP___ SH021952 -7.15749 68.0500 -1 -7.15749 68.0500 TC 25 -7.14902 68.0500 7 5 258
1951330S06074 1952 90 SI MM NOT_NAMED 1951-11-29 06:00:00 TS -7.20000 67.8000 main 1808 1795 O________OO___ jtwc_sh SH021952 -7.20000 67.8000 -1 -7.20000 67.8000 TC 25 -7.20000 67.8000 7 5 264
1951330S06074 1952 90 SI MM NOT_NAMED 1951-11-29 09:00:00 TS -7.20936 67.5473 main 1789 1776 P________PP___ SH021952 -7.19999 67.5500 -1 -7.19999 67.5500 TC 25 -7.22811 67.5418 7 5 268
1951330S06074 1952 90 SI MM NOT_NAMED 1951-11-29 12:00:00 TS -7.21666 67.2950 main 1776 1764 O________OP___ jtwc_sh SH021952 -7.20000 67.3000 -1 -7.20000 67.3000 TC 25 -7.24999 67.2850 7 5 265
1951330S06074 1952 90 SI MM NOT_NAMED 1951-11-29 15:00:00 TS -7.25229 67.0402 main 1748 1736 P________PP___ SH021952 -7.24250 67.0425 -1 -7.24250 67.0425 TC 25 -7.27187 67.0356 7 5 260
1951330S06074 1952 90 SI MM NOT_NAMED 1951-11-29 18:00:00 TS -7.30000 66.8000 main 1736 1724 O________OO___ jtwc_sh SH021952 -7.30000 66.8000 -1 -7.30000 66.8000 TC 25 -7.30000 66.8000 7 5 258
1951330S06074 1952 90 SI MM NOT_NAMED 1951-11-29 21:00:00 TS -7.34757 66.5916 main 1724 1703 P________PP___ SH021952 -7.34998 66.5925 -1 -7.34998 66.5925 TC 25 -7.34274 66.5897 7 4 256
1951330S06074 1952 90 SI MM NOT_NAMED 1951-11-30 00:00:00 TS -7.39747 66.3975 main 1703 1691 O________OP___ jtwc_sh SH021952 -7.40000 66.4000 -1 -7.40000 66.4000 TC 25 -7.39240 66.3925 7 4 255
1951330S06074 1952 90 SI MM NOT_NAMED 1951-11-30 03:00:00 TS -7.44862 66.1997 main 1691 1670 P________PP___ SH021952 -7.44999 66.2000 -1 -7.44999 66.2000 TC 25 -7.44587 66.1991 7 4 255
1951330S06074 1952 90 SI MM NOT_NAMED 1951-11-30 06:00:00 TS -7.50000 66.0000 main 1670 1658 O________OO___ jtwc_sh SH021952 -7.50000 66.0000 -1 -7.50000 66.0000 TC 25 -7.50000 66.0000 7 4 256
1951330S06074 1952 90 SI MM NOT_NAMED 1951-11-30 09:00:00 TS -7.54998 65.7990 main 1658 1637 P________PP___ SH021952 -7.54998 65.8075 -1 -7.54998 65.8075 TC 25 -7.54998 65.7822 7 4 256
1951330S06074 1952 90 SI MM NOT_NAMED 1951-11-30 12:00:00 TS -7.59999 65.5858 main 1637 1626 O________OP___ jtwc_sh SH021952 -7.60000 65.6000 -1 -7.60000 65.6000 TC 25 -7.59998 65.5575 7 5 258
1951330S06074 1952 90 SI MM NOT_NAMED 1951-11-30 15:00:00 TS -7.65000 65.3430 main 1621 1600 P________PP___ SH021952 -7.65001 65.3500 -1 -7.65001 65.3500 TC 25 -7.64998 65.3290 7 5 258
1951330S06074 1952 90 SI MM NOT_NAMED 1951-11-30 18:00:00 TS -7.70000 65.1000 main 1600 1590 O________OO___ jtwc_sh SH021952 -7.70000 65.1000 -1 -7.70000 65.1000 TC 25 -7.70000 65.1000 7 5 258
1951330S06074 1952 90 SI MM NOT_NAMED 1951-11-30 21:00:00 TS -7.74862 64.8889 main 1590 1569 P________PP___ SH021952 -7.74997 64.9000 -1 -7.74997 64.9000 TC 25 -7.74593 64.8669 7 4 257
1951330S06074 1952 90 SI MM NOT_NAMED 1951-12-01 00:00:00 TS -7.79750 64.6783 main 1569 1559 O________OP___ jtwc_sh SH021952 -7.80000 64.7000 -1 -7.80000 64.7000 TC 25 -7.79250 64.6350 7 5 258
1951330S06074 1952 90 SI MM NOT_NAMED 1951-12-01 03:00:00 TS -7.84761 64.4369 main 1554 1534 P________PP___ SH021952 -7.85001 64.4500 -1 -7.85001 64.4500 TC 25 -7.84281 64.4106 7 5 258
1951330S06074 1952 90 SI MM NOT_NAMED 1951-12-01 06:00:00 TS -7.90000 64.2000 main 1534 1525 O________OO___ jtwc_sh SH021952 -7.90000 64.2000 -1 -7.90000 64.2000 TC 25 -7.90000 64.2000 7 4 257
1951330S06074 1952 90 SI MM NOT_NAMED 1951-12-01 09:00:00 TS -7.94955 63.9962 main 1525 1505 P________PP___ SH021952 -7.94249 63.9850 -1 -7.94249 63.9850 TC 25 -7.96367 64.0187 7 4 254
1951330S06074 1952 90 SI MM NOT_NAMED 1951-12-01 12:00:00 TS -8.01163 63.8166 main 1505 1490 O________OP___ jtwc_sh SH021952 -8.00000 63.8000 -1 -8.00000 63.8000 TC 25 -8.03489 63.8499 7 4 246
1951330S06074 1952 90 SI MM NOT_NAMED 1951-12-01 15:00:00 TS -8.09954 63.6604 main 1490 1471 P________PP___ SH021952 -8.09248 63.6500 -1 -8.09248 63.6500 TC 25 -8.11367 63.6812 7 4 239
1951330S06074 1952 90 SI MM NOT_NAMED 1951-12-01 18:00:00 TS -8.20000 63.5000 main 1471 1451 O________OO___ jtwc_sh SH021952 -8.20000 63.5000 -1 -8.20000 63.5000 TC 25 -8.20000 63.5000 7 4 241
1951330S06074 1952 90 SI MM NOT_NAMED 1951-12-01 21:00:00 TS -8.29352 63.3105 main 1451 1432 P________PP___ SH021952 -8.29999 63.3150 -1 -8.29999 63.3150 TC 25 -8.28057 63.3015 7 4 245
1951330S06074 1952 90 SI MM NOT_NAMED 1951-12-02 00:00:00 TS -8.38997 63.0958 main 1432 1413 O________OP___ jtwc_sh SH021952 -8.40000 63.1000 -1 -8.40000 63.1000 TC 25 -8.36991 63.0873 7 5 247
1951330S06074 1952 90 SI MM NOT_NAMED 1951-12-02 03:00:00 TS -8.48642 62.8615 main 1413 1391 P________PP___ SH021952 -8.49248 62.8650 -1 -8.49248 62.8650 TC 25 -8.47430 62.8546 7 5 247
1951330S06074 1952 90 SI MM NOT_NAMED 1951-12-02 06:00:00 TS -8.60000 62.6000 main 1391 1368 O________OO___ jtwc_sh SH021952 -8.60000 62.6000 -1 -8.60000 62.6000 TC 25 -8.60000 62.6000 7 6 245
1951330S06074 1952 90 SI MM NOT_NAMED 1951-12-02 09:00:00 TS -8.73982 62.3054 main 1368 1336 P________PP___ SH021952 -8.73499 62.3075 -1 -8.73499 62.3075 TC 25 -8.74948 62.3013 7 7 243
1951330S06074 1952 90 SI MM NOT_NAMED 1951-12-02 12:00:00 TS -8.90672 61.9950 main 1336 1304 O________OP___ jtwc_sh SH021952 -8.90000 62.0000 -1 -8.90000 62.0000 TC 25 -8.92016 61.9851 7 7 240
1951330S06074 1952 90 SI MM NOT_NAMED 1951-12-02 15:00:00 TS -9.09692 61.6821 main 1304 1272 P________PP___ SH021952 -9.09251 61.6850 -1 -9.09251 61.6850 TC 25 -9.10574 61.6763 7 7 236
1951330S06074 1952 90 SI MM NOT_NAMED 1951-12-02 18:00:00 TS -9.30000 61.4000 main 1272 1244 O________OO___ jtwc_sh SH021952 -9.30000 61.4000 -1 -9.30000 61.4000 TC 25 -9.30000 61.4000 7 6 231
1951330S06074 1952 90 SI MM NOT_NAMED 1951-12-02 21:00:00 TS -9.49482 61.1826 main 1244 1216 P________PP___ SH021952 -9.49997 61.1775 -1 -9.49997 61.1775 TC 25 -9.48453 61.1930 7 6 225
1951330S06074 1952 90 SI MM NOT_NAMED 1951-12-03 00:00:00 TS -9.69243 61.0066 main 1216 1192 O________OP___ jtwc_sh SH021952 -9.70000 61.0000 -1 -9.70000 61.0000 TC 25 -9.67730 61.0197 7 5 219
1951330S06074 1952 90 SI MM NOT_NAMED 1951-12-03 03:00:00 TS -9.88879 60.8539 main 1192 1164 P________PP___ SH021952 -9.89247 60.8499 -1 -9.89247 60.8499 TC 25 -9.88143 60.8617 7 5 216
1951330S06074 1952 90 SI MM NOT_NAMED 1951-12-03 06:00:00 TS -10.1000 60.7000 main 1164 1137 O________OO___ jtwc_sh SH021952 -10.1000 60.7000 -1 -10.1000 60.7000 TC 25 -10.1000 60.7000 7 6 217
1951330S06074 1952 90 SI MM NOT_NAMED 1951-12-03 09:00:00 TS -10.3429 60.5087 main 1137 1099 P________PP___ SH021952 -10.3425 60.5075 -1 -10.3425 60.5075 TC 25 -10.3437 60.5112 7 6 218
1951330S06074 1952 90 SI MM NOT_NAMED 1951-12-03 12:00:00 TS -10.6000 60.3050 main 1099 1072 O________OP___ jtwc_sh SH021952 -10.6000 60.3000 -1 -10.6000 60.3000 TC 25 -10.5999 60.3150 7 7 218
1951330S06074 1952 90 SI MM NOT_NAMED 1951-12-03 15:00:00 TS -10.8571 60.1037 main 1061 1034 P________PP___ SH021952 -10.8575 60.1000 -1 -10.8575 60.1000 TC 30 -10.8562 60.1112 7 6 219
1951330S06074 1952 90 SI MM NOT_NAMED 1951-12-03 18:00:00 TS -11.1000 59.9000 main 1034 1007 O________OO___ jtwc_sh SH021952 -11.1000 59.9000 -1 -11.1000 59.9000 TC 35 -11.1000 59.9000 2 6 221
1951330S06074 1952 90 SI MM NOT_NAMED 1951-12-03 21:00:00 TS -11.3111 59.7003 main 1007 981 P________PP___ SH021952 -11.3075 59.7074 -1 -11.3075 59.7074 TC 35 -11.3184 59.6861 2 6 225
1951330S06074 1952 90 SI MM NOT_NAMED 1951-12-04 00:00:00 TS -11.5075 59.4883 main 981 955 O________OP___ jtwc_sh SH021952 -11.5000 59.5000 -1 -11.5000 59.5000 TC 35 -11.5224 59.4649 2 6 228
1951330S06074 1952 90 SI MM NOT_NAMED 1951-12-04 03:00:00 TS -11.7101 59.2504 main 955 928 P________PP___ SH021952 -11.7075 59.2575 -1 -11.7075 59.2575 TC 35 -11.7152 59.2361 2 6 231
1951330S06074 1952 90 SI MM NOT_NAMED 1951-12-04 06:00:00 TS -11.9000 59.0000 main 928 903 O________OO___ jtwc_sh SH021952 -11.9000 59.0000 -1 -11.9000 59.0000 TC 35 -11.9000 59.0000 2 6 234
1951330S06074 1952 90 SI MM NOT_NAMED 1951-12-04 09:00:00 TS -12.0607 58.7577 main 903 888 P________PP___ SH021952 -12.0500 58.7499 -1 -12.0500 58.7499 TC 35 -12.0820 58.7733 2 6 236
1951330S06074 1952 90 SI MM NOT_NAMED 1951-12-04 12:00:00 TS -12.2191 58.5124 main 888 864 O________OP___ jtwc_sh SH021952 -12.2000 58.5000 -1 -12.2000 58.5000 TC 35 -12.2573 58.5372 2 6 234
1951330S06074 1952 90 SI MM NOT_NAMED 1951-12-04 15:00:00 TS -12.4096 58.2708 main 864 839 P________PP___ SH021952 -12.3999 58.2650 -1 -12.3999 58.2650 TC 35 -12.4289 58.2826 2 6 233
1951330S06074 1952 90 SI MM NOT_NAMED 1951-12-04 18:00:00 TS -12.6000 58.0000 main 839 816 O________OO___ jtwc_sh SH021952 -12.6000 58.0000 -1 -12.6000 58.0000 TC 35 -12.6000 58.0000 2 7 239
1951330S06074 1952 90 SI MM NOT_NAMED 1951-12-04 21:00:00 TS -12.7638 57.6628 main 816 777 P________PP___ SH021952 -12.7500 57.6649 -1 -12.7500 57.6649 TC 35 -12.7914 57.6586 2 8 244
1951330S06074 1952 90 SI MM NOT_NAMED 1951-12-05 00:00:00 TS -12.9268 57.2976 main 777 739 O________OP___ jtwc_sh SH021952 -12.9000 57.3000 -1 -12.9000 57.3000 TC 35 -12.9803 57.2928 2 8 243
1951330S06074 1952 90 SI MM NOT_NAMED 1951-12-05 03:00:00 TS -13.1230 56.9336 main 729 691 P________PP___ SH021952 -13.1075 56.9351 -1 -13.1075 56.9351 TC 35 -13.1540 56.9305 2 8 241
1951330S06074 1952 90 SI MM NOT_NAMED 1951-12-05 06:00:00 TS -13.3000 56.6000 main 691 656 O________OO___ jtwc_sh SH021952 -13.3000 56.6000 -1 -13.3000 56.6000 TC 35 -13.3000 56.6000 2 7 243
1951330S06074 1952 90 SI MM NOT_NAMED 1951-12-05 09:00:00 TS -13.4148 56.3326 main 656 632 P________PP___ SH021952 -13.4224 56.3274 -1 -13.4224 56.3274 TC 35 -13.3994 56.3428 2 5 248
1951330S06074 1952 90 SI MM NOT_NAMED 1951-12-05 12:00:00 TS -13.4907 56.1065 main 632 612 O________OP___ jtwc_sh SH021952 -13.5000 56.1000 -1 -13.5000 56.1000 TC 35 -13.4721 56.1196 2 4 253
1951330S06074 1952 90 SI MM NOT_NAMED 1951-12-05 15:00:00 TS -13.5446 55.9038 main 612 588 P________PP___ SH021952 -13.5499 55.8999 -1 -13.5499 55.8999 TC 35 -13.5338 55.9116 2 4 255
1951330S06074 1952 90 SI MM NOT_NAMED 1951-12-05 18:00:00 TS -13.6000 55.7000 main 588 564 O________OO___ jtwc_sh SH021952 -13.6000 55.7000 -1 -13.6000 55.7000 TC 35 -13.6000 55.7000 2 5 251
1951330S06074 1952 90 SI MM NOT_NAMED 1951-12-05 21:00:00 TS -13.6892 55.4617 main 564 529 P________PP___ SH021952 -13.6925 55.4575 -1 -13.6925 55.4575 TC 35 -13.6827 55.4699 2 5 248
1951330S06074 1952 90 SI MM NOT_NAMED 1951-12-06 00:00:00 TS -13.7935 55.2076 main 529 505 O________OP___ jtwc_sh SH021952 -13.8000 55.2000 -1 -13.8000 55.2000 TC 35 -13.7804 55.2229 2 5 247
1951330S06074 1952 90 SI MM NOT_NAMED 1951-12-06 03:00:00 TS -13.8976 54.9531 main 505 471 P________PP___ SH021952 -13.9025 54.9475 -1 -13.9025 54.9475 TC 35 -13.8878 54.9644 2 5 247
1951330S06074 1952 90 SI MM NOT_NAMED 1951-12-06 06:00:00 TS -14.0000 54.7000 main 471 O________OO___ jtwc_sh SH021952 -14.0000 54.7000 -1 -14.0000 54.7000 TC 35 -14.0000 54.7000 2 5 248

About IBTrACS Database

This database is a web-friendly format of International Best Track Archive for Climate Stewardship (IBTrACS), a global best track data archive curated by NOAA dating back to 1842.

Updated: 2021-12-01